createdAt,value
2018-06-09T00:01:11.652Z,56.70
2018-06-09T00:03:38.685Z,56.80
2018-06-09T00:06:05.158Z,56.80
2018-06-09T00:08:31.634Z,56.90
2018-06-09T00:10:58.112Z,56.90
2018-06-09T00:13:24.708Z,56.80
2018-06-09T00:15:51.192Z,56.90
2018-06-09T00:18:17.634Z,56.80
2018-06-09T00:20:44.131Z,56.90
2018-06-09T00:23:10.645Z,56.90
2018-06-09T00:25:37.174Z,57.10
2018-06-09T00:28:03.632Z,56.80
2018-06-09T00:30:30.148Z,56.90
2018-06-09T00:32:56.712Z,56.90
2018-06-09T00:35:23.204Z,57.00
2018-06-09T00:37:49.710Z,56.90
2018-06-09T00:40:16.215Z,56.90
2018-06-09T00:42:42.718Z,56.90
2018-06-09T00:45:09.204Z,56.70
2018-06-09T00:47:35.664Z,56.60
2018-06-09T00:50:02.151Z,56.90
2018-06-09T00:52:28.652Z,56.80
2018-06-09T00:54:55.156Z,56.60
2018-06-09T00:59:48.641Z,56.90
2018-06-09T01:02:15.164Z,56.80
2018-06-09T01:04:41.656Z,56.60
2018-06-09T01:07:08.172Z,56.70
2018-06-09T01:09:34.663Z,56.70
2018-06-09T01:12:01.139Z,56.80
2018-06-09T01:14:27.627Z,56.50
2018-06-09T01:16:54.165Z,56.70
2018-06-09T01:19:20.671Z,56.70
2018-06-09T01:21:47.174Z,56.60
2018-06-09T01:24:13.612Z,56.60
2018-06-09T01:26:40.080Z,56.60
2018-06-09T01:29:06.571Z,56.60
2018-06-09T01:31:33.074Z,56.50
2018-06-09T01:33:59.974Z,56.70
2018-06-09T01:36:26.472Z,56.70
2018-06-09T01:38:52.943Z,56.70
2018-06-09T01:41:19.417Z,56.70
2018-06-09T01:43:46.574Z,56.60
2018-06-09T01:46:13.054Z,56.60
2018-06-09T01:48:39.552Z,56.70
2018-06-09T01:51:06.044Z,56.60
2018-06-09T01:53:32.551Z,56.60
2018-06-09T01:55:59.128Z,56.60
2018-06-09T01:58:25.657Z,56.70
2018-06-09T02:00:52.144Z,56.60
2018-06-09T02:03:18.671Z,56.50
2018-06-09T02:05:45.163Z,56.60
2018-06-09T02:08:11.607Z,56.60
2018-06-09T02:10:38.126Z,56.30
2018-06-09T02:13:04.586Z,56.50
2018-06-09T02:15:31.147Z,56.50
2018-06-09T02:17:57.689Z,56.20
2018-06-09T02:20:24.213Z,56.50
2018-06-09T02:22:50.694Z,56.50
2018-06-09T02:25:17.236Z,56.30
2018-06-09T02:27:43.727Z,56.30
2018-06-09T02:30:10.197Z,56.20
2018-06-09T02:32:36.700Z,56.40
2018-06-09T02:35:03.194Z,56.20
2018-06-09T02:37:29.651Z,56.30
2018-06-09T02:39:56.144Z,56.20
2018-06-09T02:42:22.640Z,56.20
2018-06-09T02:44:49.150Z,56.20
2018-06-09T02:47:15.614Z,56.20
2018-06-09T02:49:42.096Z,56.10
2018-06-09T02:52:08.584Z,56.30
2018-06-09T02:54:35.102Z,56.40
2018-06-09T02:57:01.544Z,56.50
2018-06-09T02:59:28.004Z,56.50
2018-06-09T03:01:54.523Z,56.80
2018-06-09T03:04:21.012Z,56.60
2018-06-09T03:06:47.519Z,56.70
2018-06-09T03:09:13.998Z,56.60
2018-06-09T03:11:40.470Z,56.80
2018-06-09T03:14:07.202Z,56.80
2018-06-09T03:16:33.710Z,56.70
2018-06-09T03:19:00.190Z,56.90
2018-06-09T03:21:26.644Z,56.70
2018-06-09T03:23:53.108Z,56.70
2018-06-09T03:26:19.596Z,56.70
2018-06-09T03:28:46.090Z,56.80
2018-06-09T03:31:12.592Z,56.80
2018-06-09T03:33:39.078Z,56.90
2018-06-09T03:36:05.552Z,56.90
2018-06-09T03:38:32.058Z,57.00
2018-06-09T03:40:58.601Z,57.00
2018-06-09T03:43:25.179Z,57.00
2018-06-09T03:45:51.530Z,56.90
2018-06-09T03:48:18.012Z,56.90
2018-06-09T03:50:44.481Z,56.90
2018-06-09T03:53:10.964Z,56.90
2018-06-09T03:55:37.459Z,57.10
2018-06-09T03:58:03.944Z,57.00
2018-06-09T04:00:30.555Z,57.00
2018-06-09T04:02:57.009Z,56.90
2018-06-09T04:05:23.491Z,57.10
2018-06-09T04:07:49.961Z,57.00
2018-06-09T04:10:16.488Z,57.50
2018-06-09T04:12:43.033Z,57.10
2018-06-09T04:15:09.510Z,57.40
2018-06-09T04:17:36.024Z,57.00
2018-06-09T04:20:02.499Z,57.10
2018-06-09T04:22:28.979Z,56.90
2018-06-09T04:24:55.485Z,56.80
2018-06-09T04:27:21.938Z,56.70
2018-06-09T04:29:48.417Z,56.80
2018-06-09T04:32:14.883Z,56.80
2018-06-09T04:34:41.589Z,56.80
2018-06-09T04:37:08.113Z,56.70
2018-06-09T04:39:34.614Z,56.70
2018-06-09T04:42:01.072Z,56.70
2018-06-09T04:44:27.546Z,56.70
2018-06-09T04:46:54.026Z,56.70
2018-06-09T04:49:20.453Z,56.60
2018-06-09T04:51:46.979Z,56.60
2018-06-09T04:54:13.486Z,56.70
2018-06-09T04:56:39.947Z,56.70
2018-06-09T04:59:06.440Z,56.60
2018-06-09T05:01:32.973Z,56.70
2018-06-09T05:03:59.904Z,56.70
2018-06-09T05:06:26.414Z,56.80
2018-06-09T05:08:52.901Z,56.50
2018-06-09T05:11:19.424Z,56.70
2018-06-09T05:13:45.912Z,56.50
2018-06-09T05:16:12.398Z,56.60
2018-06-09T05:18:38.841Z,56.50
2018-06-09T05:21:05.308Z,56.60
2018-06-09T05:23:32.112Z,56.60
2018-06-09T05:25:58.604Z,56.70
2018-06-09T05:28:25.106Z,56.60
2018-06-09T05:30:51.556Z,56.60
2018-06-09T05:33:18.069Z,56.60
2018-06-09T05:35:44.580Z,56.60
2018-06-09T05:38:11.096Z,56.50
2018-06-09T05:40:37.567Z,56.60
2018-06-09T05:43:04.040Z,56.90
2018-06-09T05:45:30.502Z,56.90
2018-06-09T05:47:57.016Z,57.00
2018-06-09T05:50:23.495Z,57.00
2018-06-09T05:52:50.173Z,57.00
2018-06-09T05:55:16.694Z,56.90
2018-06-09T05:57:43.186Z,57.00
2018-06-09T06:00:09.654Z,57.00
2018-06-09T06:02:36.183Z,57.00
2018-06-09T06:05:02.668Z,57.00
2018-06-09T06:07:29.270Z,57.00
2018-06-09T06:09:55.794Z,57.10
2018-06-09T06:12:22.289Z,57.10
2018-06-09T06:14:48.771Z,57.20
2018-06-09T06:17:15.275Z,57.20
2018-06-09T06:19:41.809Z,57.30
2018-06-09T06:22:08.307Z,57.50
2018-06-09T06:24:34.785Z,57.60
2018-06-09T06:27:01.287Z,57.80
2018-06-09T06:29:27.763Z,58.20
2018-06-09T06:31:54.327Z,58.40
2018-06-09T06:34:20.824Z,58.40
2018-06-09T06:36:47.281Z,58.40
2018-06-09T06:39:13.780Z,58.60
2018-06-09T06:41:40.271Z,58.30
2018-06-09T06:44:06.763Z,58.20
2018-06-09T06:46:33.261Z,58.10
2018-06-09T06:48:59.813Z,58.40
2018-06-09T06:51:26.293Z,58.30
2018-06-09T06:53:52.782Z,58.60
2018-06-09T06:56:19.227Z,58.70
2018-06-09T06:58:45.731Z,58.70
2018-06-09T07:01:12.233Z,58.70
2018-06-09T07:03:38.755Z,58.80
2018-06-09T07:06:05.219Z,58.40
2018-06-09T07:08:31.705Z,59.00
2018-06-09T07:10:58.194Z,58.20
2018-06-09T07:13:24.663Z,58.20
2018-06-09T07:15:51.157Z,58.40
2018-06-09T07:18:17.691Z,58.30
2018-06-09T07:20:44.181Z,58.10
2018-06-09T07:23:10.738Z,58.00
2018-06-09T07:25:37.193Z,57.90
2018-06-09T07:28:03.743Z,57.90
2018-06-09T07:30:30.219Z,57.90
2018-06-09T07:32:56.704Z,57.90
2018-06-09T07:35:23.207Z,57.90
2018-06-09T07:37:49.700Z,57.90
2018-06-09T07:40:16.165Z,57.80
2018-06-09T07:42:43.134Z,57.80
2018-06-09T07:45:09.707Z,57.70
2018-06-09T07:47:36.175Z,57.60
2018-06-09T07:50:02.666Z,57.60
2018-06-09T07:52:29.159Z,57.60
2018-06-09T07:54:55.651Z,57.70
2018-06-09T07:57:22.106Z,57.70
2018-06-09T07:59:48.592Z,57.90
2018-06-09T08:02:15.127Z,57.90
2018-06-09T08:04:41.612Z,57.70
2018-06-09T08:07:08.113Z,58.00
2018-06-09T08:09:35.138Z,58.60
2018-06-09T08:12:01.613Z,58.00
2018-06-09T08:14:28.100Z,58.20
2018-06-09T08:16:54.632Z,58.20
2018-06-09T08:19:21.136Z,58.90
2018-06-09T08:21:47.620Z,58.30
2018-06-09T08:24:14.100Z,58.50
2018-06-09T08:26:40.598Z,58.50
2018-06-09T08:29:07.208Z,58.70
2018-06-09T08:31:33.684Z,59.10
2018-06-09T08:34:00.142Z,58.90
2018-06-09T08:36:26.610Z,58.80
2018-06-09T08:38:53.119Z,58.60
2018-06-09T08:41:19.624Z,58.60
2018-06-09T08:43:46.136Z,58.60
2018-06-09T08:46:12.671Z,58.60
2018-06-09T08:48:39.172Z,58.80
2018-06-09T08:51:05.678Z,59.00
2018-06-09T08:53:32.150Z,59.90
2018-06-09T08:55:58.616Z,59.60
2018-06-09T08:58:26.036Z,60.00
2018-06-09T09:00:52.663Z,61.20
2018-06-09T09:03:19.160Z,60.70
2018-06-09T09:05:45.773Z,60.80
2018-06-09T09:08:12.253Z,61.10
2018-06-09T09:10:38.800Z,61.70
2018-06-09T09:13:05.324Z,61.80
2018-06-09T09:15:31.818Z,62.10
2018-06-09T09:17:58.974Z,62.20
2018-06-09T09:20:25.456Z,62.30
2018-06-09T09:22:52.007Z,62.00
2018-06-09T09:25:18.502Z,61.70
2018-06-09T09:27:45.078Z,61.20
2018-06-09T09:30:11.576Z,61.70
2018-06-09T09:32:38.454Z,61.30
2018-06-09T09:35:05.570Z,61.60
2018-06-09T09:39:59.029Z,61.60
2018-06-09T09:42:25.662Z,61.60
2018-06-09T09:44:52.131Z,61.80
2018-06-09T09:47:18.755Z,62.50
2018-06-09T09:49:45.234Z,62.60
2018-06-09T09:52:11.718Z,63.50
2018-06-09T09:54:38.217Z,63.50
2018-06-09T09:57:05.316Z,63.50
2018-06-09T09:59:31.780Z,63.50
2018-06-09T10:01:58.285Z,63.80
2018-06-09T10:04:24.781Z,63.30
2018-06-09T10:06:52.078Z,62.70
2018-06-09T10:09:18.609Z,62.60
2018-06-09T10:11:45.081Z,62.30
2018-06-09T10:14:11.982Z,62.40
2018-06-09T10:16:39.473Z,62.30
2018-06-09T10:19:05.962Z,62.30
2018-06-09T10:21:32.462Z,62.20
2018-06-09T10:23:58.977Z,61.90
2018-06-09T10:26:25.448Z,61.90
2018-06-09T10:28:51.907Z,61.70
2018-06-09T10:31:18.431Z,61.60
2018-06-09T10:33:44.928Z,62.10
2018-06-09T10:36:11.419Z,62.60
2018-06-09T10:38:38.017Z,62.20
2018-06-09T10:41:04.479Z,62.50
2018-06-09T10:43:30.948Z,62.50
2018-06-09T10:45:57.453Z,62.10
2018-06-09T10:48:23.956Z,64.80
2018-06-09T10:50:50.410Z,67.60
2018-06-09T10:53:16.899Z,68.60
2018-06-09T10:55:43.385Z,70.50
2018-06-09T10:58:09.903Z,69.70
2018-06-09T11:00:36.411Z,68.40
2018-06-09T11:03:02.861Z,68.80
2018-06-09T11:05:29.355Z,71.20
2018-06-09T11:07:55.847Z,69.00
2018-06-09T11:10:22.408Z,68.80
2018-06-09T11:12:49.493Z,70.20
2018-06-09T11:15:16.068Z,69.10
2018-06-09T11:17:42.547Z,68.80
2018-06-09T11:20:08.997Z,67.90
2018-06-09T11:22:36.245Z,67.20
2018-06-09T11:27:30.199Z,62.00
2018-06-09T11:29:56.691Z,62.40
2018-06-09T11:32:24.624Z,61.70
2018-06-09T11:34:51.109Z,62.30
2018-06-09T11:37:17.611Z,59.80
2018-06-09T11:39:44.118Z,59.60
2018-06-09T11:42:12.344Z,58.70
2018-06-09T11:44:38.825Z,59.00
2018-06-09T11:47:05.348Z,58.60
2018-06-09T11:49:31.797Z,57.20
2018-06-09T11:51:58.244Z,56.90
2018-06-09T11:54:24.734Z,56.50
2018-06-09T11:56:51.281Z,56.60
2018-06-09T11:59:17.746Z,57.10
2018-06-09T12:01:44.304Z,57.80
2018-06-09T12:04:10.733Z,58.10
2018-06-09T12:06:37.191Z,58.10
2018-06-09T12:09:04.362Z,57.90
2018-06-09T12:11:30.832Z,58.10
2018-06-09T12:13:57.406Z,58.10
2018-06-09T12:16:23.885Z,58.40
2018-06-09T12:18:50.332Z,58.30
2018-06-09T12:21:16.816Z,58.20
2018-06-09T12:23:43.298Z,58.30
2018-06-09T12:26:09.793Z,58.40
2018-06-09T12:28:36.352Z,58.40
2018-06-09T12:31:02.842Z,58.30
2018-06-09T12:33:29.328Z,58.50
2018-06-09T12:35:55.831Z,58.50
2018-06-09T12:38:22.368Z,58.60
2018-06-09T12:40:48.826Z,58.50
2018-06-09T12:43:15.310Z,58.60
2018-06-09T12:45:41.822Z,58.50
2018-06-09T12:48:08.336Z,58.60
2018-06-09T12:50:34.883Z,58.70
2018-06-09T12:53:01.386Z,58.70
2018-06-09T12:55:27.862Z,58.60
2018-06-09T12:57:54.302Z,58.70
2018-06-09T13:00:20.822Z,58.80
2018-06-09T13:02:47.280Z,58.80
2018-06-09T13:05:13.824Z,58.80
2018-06-09T13:07:40.253Z,58.80
2018-06-09T13:10:06.731Z,58.80
2018-06-09T13:12:33.793Z,58.70
2018-06-09T13:15:00.301Z,59.30
2018-06-09T13:17:26.743Z,58.70
2018-06-09T13:22:32.376Z,58.70
2018-06-09T13:24:58.813Z,58.80
2018-06-09T13:27:25.282Z,58.70
2018-06-09T13:29:51.741Z,58.70
2018-06-09T13:32:18.195Z,58.70
2018-06-09T13:34:44.644Z,58.70
2018-06-09T13:37:11.131Z,58.70
2018-06-09T13:39:37.596Z,58.60
2018-06-09T13:42:04.068Z,58.60
2018-06-09T13:44:30.548Z,58.80
2018-06-09T13:46:57.086Z,58.70
2018-06-09T13:49:23.603Z,58.80
2018-06-09T13:51:50.029Z,58.80
2018-06-09T13:54:16.564Z,58.70
2018-06-09T13:56:43.031Z,58.90
2018-06-09T13:59:09.499Z,59.00
2018-06-09T14:01:35.996Z,58.80
2018-06-09T14:04:02.505Z,58.90
2018-06-09T14:06:28.951Z,58.80
2018-06-09T14:08:56.049Z,58.90
2018-06-09T14:11:22.534Z,58.90
2018-06-09T14:13:49.075Z,58.80
2018-06-09T14:16:15.578Z,58.60
2018-06-09T14:18:42.035Z,58.60
2018-06-09T14:21:08.531Z,58.70
2018-06-09T14:23:35.083Z,58.70
2018-06-09T14:26:01.568Z,58.60
2018-06-09T14:28:28.089Z,58.60
2018-06-09T14:30:54.562Z,58.50
2018-06-09T14:33:21.057Z,58.40
2018-06-09T14:35:47.552Z,58.40
2018-06-09T14:38:14.043Z,58.30
2018-06-09T14:40:40.505Z,58.90
2018-06-09T14:43:07.017Z,58.30
2018-06-09T14:45:33.541Z,58.20
2018-06-09T14:48:00.015Z,58.10
2018-06-09T14:50:26.491Z,58.20
2018-06-09T14:52:56.665Z,58.20
2018-06-09T14:55:23.108Z,58.20
2018-06-09T14:57:49.573Z,58.10
2018-06-09T15:00:16.063Z,58.10
2018-06-09T15:02:43.341Z,58.20
2018-06-09T15:05:09.815Z,58.20
2018-06-09T15:07:36.273Z,58.10
2018-06-09T15:10:02.757Z,58.10
2018-06-09T15:12:29.464Z,58.20
2018-06-09T15:14:55.960Z,58.10
2018-06-09T15:17:22.472Z,58.10
2018-06-09T15:19:48.961Z,58.10
2018-06-09T15:22:15.606Z,58.10
2018-06-09T15:24:42.111Z,58.10
2018-06-09T15:27:08.582Z,58.10
2018-06-09T15:29:35.065Z,58.10
2018-06-09T15:32:01.569Z,58.10
2018-06-09T15:34:28.061Z,58.10
2018-06-09T15:36:54.552Z,58.10
2018-06-09T15:39:21.083Z,58.10
2018-06-09T15:41:47.583Z,58.20
2018-06-09T15:44:14.066Z,58.10
2018-06-09T15:46:40.785Z,58.10
2018-06-09T15:49:07.355Z,58.10
2018-06-09T15:51:33.876Z,58.10
2018-06-09T15:54:00.411Z,58.10
2018-06-09T15:56:26.887Z,58.10
2018-06-09T15:58:53.408Z,58.20
2018-06-09T16:01:20.006Z,58.20
2018-06-09T16:03:46.576Z,58.40
2018-06-09T16:06:13.101Z,58.60
2018-06-09T16:08:39.574Z,59.00
2018-06-09T16:11:06.087Z,59.20
2018-06-09T16:13:32.577Z,59.30
2018-06-09T16:15:59.057Z,59.60
2018-06-09T16:18:26.453Z,59.80
2018-06-09T16:20:52.955Z,60.10
2018-06-09T16:23:19.471Z,61.40
2018-06-09T16:25:45.971Z,61.80
2018-06-09T16:28:12.517Z,61.60
2018-06-09T16:30:39.067Z,61.40
2018-06-09T16:33:05.636Z,61.30
2018-06-09T16:35:32.202Z,61.50
2018-06-09T16:37:59.260Z,62.50
2018-06-09T16:40:25.961Z,62.00
2018-06-09T16:42:52.458Z,63.20
2018-06-09T16:45:18.934Z,63.90
2018-06-09T16:47:45.433Z,64.50
2018-06-09T16:50:11.876Z,63.70
2018-06-09T16:52:38.530Z,64.80
2018-06-09T16:55:05.070Z,64.30
2018-06-09T16:57:31.746Z,64.60
2018-06-09T16:59:58.236Z,63.90
2018-06-09T17:02:24.730Z,63.60
2018-06-09T17:04:51.214Z,63.00
2018-06-09T17:07:17.853Z,64.70
2018-06-09T17:09:44.304Z,64.80
2018-06-09T17:12:11.304Z,64.00
2018-06-09T17:14:37.799Z,63.90
2018-06-09T17:17:04.259Z,63.80
2018-06-09T17:19:30.710Z,64.00
2018-06-09T17:21:57.248Z,64.90
2018-06-09T17:24:23.732Z,64.90
2018-06-09T17:26:50.215Z,65.30
2018-06-09T17:29:16.740Z,64.80
2018-06-09T17:31:43.234Z,63.90
2018-06-09T17:34:10.451Z,64.00
2018-06-09T17:36:36.991Z,63.50
2018-06-09T17:39:04.268Z,63.20
2018-06-09T17:41:31.543Z,62.70
2018-06-09T17:43:58.054Z,62.20
2018-06-09T17:46:24.528Z,62.50
2018-06-09T17:48:51.018Z,61.10
2018-06-09T17:51:17.498Z,61.50
2018-06-09T17:53:44.009Z,62.10
2018-06-09T17:56:10.516Z,61.30
2018-06-09T17:58:36.953Z,61.00
2018-06-09T18:01:03.453Z,61.40
2018-06-09T18:03:29.928Z,61.00
2018-06-09T18:05:56.407Z,60.80
2018-06-09T18:08:23.041Z,61.10
2018-06-09T18:10:49.673Z,60.40
2018-06-09T18:13:16.151Z,60.10
2018-06-09T18:15:42.731Z,60.60
2018-06-09T18:18:09.177Z,61.10
2018-06-09T18:20:35.630Z,61.00
2018-06-09T18:23:02.221Z,60.70
2018-06-09T18:25:28.667Z,60.30
2018-06-09T18:27:55.137Z,60.20
2018-06-09T18:30:21.607Z,61.00
2018-06-09T18:32:48.116Z,60.60
2018-06-09T18:35:14.627Z,60.50
2018-06-09T18:37:41.165Z,60.40
2018-06-09T18:40:07.641Z,60.30
2018-06-09T18:42:34.776Z,60.40
2018-06-09T18:45:01.214Z,60.50
2018-06-09T18:47:27.715Z,59.90
2018-06-09T18:50:04.066Z,59.80
2018-06-09T18:52:30.697Z,59.60
2018-06-09T18:54:57.292Z,59.20
2018-06-09T18:57:23.785Z,59.40
2018-06-09T18:59:50.264Z,59.50
2018-06-09T19:02:16.765Z,59.40
2018-06-09T19:04:43.254Z,59.30
2018-06-09T19:07:09.805Z,60.00
2018-06-09T19:09:36.286Z,59.10
2018-06-09T19:12:02.785Z,59.20
2018-06-09T19:14:29.308Z,59.10
2018-06-09T19:16:55.827Z,59.10
2018-06-09T19:19:22.353Z,59.10
2018-06-09T19:21:48.895Z,59.40
2018-06-09T19:24:15.387Z,59.80
2018-06-09T19:26:41.879Z,59.60
2018-06-09T19:29:08.383Z,59.50
2018-06-09T19:31:34.895Z,59.40
2018-06-09T19:34:01.401Z,59.80
2018-06-09T19:36:27.883Z,59.80
2018-06-09T19:38:54.439Z,60.00
2018-06-09T19:41:20.953Z,60.00
2018-06-09T19:43:47.757Z,60.10
2018-06-09T19:46:14.315Z,60.20
2018-06-09T19:48:40.849Z,60.20
2018-06-09T19:51:07.375Z,60.20
2018-06-09T19:53:33.905Z,60.20
2018-06-09T19:56:00.559Z,60.20
2018-06-09T19:58:27.087Z,60.10
2018-06-09T20:00:53.587Z,60.10
2018-06-09T20:03:20.102Z,60.20
2018-06-09T20:05:46.541Z,60.20
2018-06-09T20:08:13.040Z,60.20
2018-06-09T20:10:39.551Z,60.40
2018-06-09T20:13:06.033Z,60.40
2018-06-09T20:15:32.522Z,60.60
2018-06-09T20:17:59.009Z,60.60
2018-06-09T20:20:25.499Z,60.60
2018-06-09T20:22:57.563Z,60.60
2018-06-09T20:25:24.079Z,60.60
2018-06-09T20:27:50.546Z,60.50
2018-06-09T20:30:17.029Z,60.50
2018-06-09T20:32:43.561Z,60.60
2018-06-09T20:35:10.019Z,60.60
2018-06-09T20:37:36.527Z,60.60
2018-06-09T20:40:03.031Z,60.50
2018-06-09T20:42:29.532Z,60.50
2018-06-09T20:44:56.032Z,60.30
2018-06-09T20:47:22.507Z,60.20
2018-06-09T20:49:48.974Z,60.20
2018-06-09T20:52:15.461Z,60.20
2018-06-09T20:54:41.914Z,60.30
2018-06-09T20:57:08.378Z,60.30
2018-06-09T20:59:34.824Z,60.40
2018-06-09T21:02:01.326Z,60.40
2018-06-09T21:04:27.820Z,60.20
2018-06-09T21:06:54.321Z,60.30
2018-06-09T21:09:20.826Z,60.20
2018-06-09T21:11:47.290Z,60.20
2018-06-09T21:14:13.790Z,60.30
2018-06-09T21:16:40.273Z,60.20
2018-06-09T21:19:06.770Z,60.20
2018-06-09T21:21:33.326Z,60.20
2018-06-09T21:23:59.807Z,60.20
2018-06-09T21:26:30.869Z,60.90
2018-06-09T21:28:58.335Z,63.00
2018-06-09T21:31:30.517Z,62.40
2018-06-09T21:34:02.576Z,62.40
2018-06-09T21:36:34.456Z,62.00
2018-06-09T21:39:05.606Z,61.70
2018-06-09T21:41:37.828Z,61.40
2018-06-09T21:44:10.026Z,61.10
2018-06-09T21:46:42.131Z,61.00
2018-06-09T21:49:08.648Z,61.00
2018-06-09T21:51:35.170Z,60.90
2018-06-09T21:54:01.890Z,60.80
2018-06-09T21:56:28.406Z,60.70
2018-06-09T21:58:54.899Z,60.80
2018-06-09T22:01:21.366Z,60.80
2018-06-09T22:03:47.864Z,60.60
2018-06-09T22:06:14.348Z,60.60
2018-06-09T22:08:40.905Z,60.60
2018-06-09T22:11:07.452Z,60.50
2018-06-09T22:13:34.265Z,60.50
2018-06-09T22:16:00.747Z,60.60
2018-06-09T22:18:27.251Z,60.70
2018-06-09T22:20:53.707Z,60.60
2018-06-09T22:23:20.165Z,60.50
2018-06-09T22:25:52.355Z,60.40
2018-06-09T22:28:18.858Z,60.40
2018-06-09T22:30:45.341Z,60.30
2018-06-09T22:33:11.833Z,60.50
2018-06-09T22:35:38.289Z,60.40
2018-06-09T22:38:04.761Z,60.40
2018-06-09T22:40:31.225Z,60.40
2018-06-09T22:42:58.539Z,61.20
2018-06-09T22:45:25.079Z,60.30
2018-06-09T22:47:51.593Z,61.20
2018-06-09T22:50:18.084Z,60.50
2018-06-09T22:52:44.579Z,60.60
2018-06-09T22:55:11.095Z,60.60
2018-06-09T22:57:37.569Z,60.50
2018-06-09T23:00:04.051Z,60.60
2018-06-09T23:02:30.524Z,60.60
2018-06-09T23:04:57.031Z,60.70
2018-06-09T23:07:23.553Z,60.70
2018-06-09T23:09:50.019Z,60.80
2018-06-09T23:12:16.491Z,60.80
2018-06-09T23:14:42.967Z,60.80
2018-06-09T23:17:09.419Z,60.80
2018-06-09T23:19:35.897Z,60.90
2018-06-09T23:22:02.411Z,60.80
2018-06-09T23:24:28.886Z,60.80
2018-06-09T23:26:55.395Z,61.00
2018-06-09T23:29:21.885Z,60.90
2018-06-09T23:31:48.371Z,60.90
2018-06-09T23:34:14.854Z,60.90
2018-06-09T23:36:41.311Z,60.90
2018-06-09T23:39:07.779Z,61.00
2018-06-09T23:41:34.240Z,61.00
2018-06-09T23:44:00.973Z,61.00
2018-06-09T23:46:27.463Z,61.00
2018-06-09T23:48:53.917Z,61.20
2018-06-09T23:51:20.418Z,61.00
2018-06-09T23:53:47.158Z,61.10
2018-06-09T23:56:13.720Z,61.00
2018-06-09T23:58:40.276Z,61.00
